createdAt,value
2023-02-16T00:01:26.664Z,99269.87
2023-02-16T00:03:58.487Z,99271.59
2023-02-16T00:06:29.659Z,99273.70
2023-02-16T00:08:59.643Z,99276.85
2023-02-16T00:11:53.922Z,99271.06
2023-02-16T00:14:26.916Z,99271.70
2023-02-16T00:16:58.502Z,99269.81
2023-02-16T00:19:34.112Z,99271.27
2023-02-16T00:22:06.434Z,99269.64
2023-02-16T00:24:35.954Z,99264.73
2023-02-16T00:27:14.375Z,99266.73
2023-02-16T00:29:45.942Z,99265.77
2023-02-16T00:32:15.977Z,99263.41
2023-02-16T00:34:46.986Z,99261.91
2023-02-16T00:37:17.413Z,99259.13
2023-02-16T00:39:47.260Z,99260.46
2023-02-16T00:42:25.290Z,99259.37
2023-02-16T00:44:58.075Z,99259.02
2023-02-16T00:47:47.399Z,99255.22
2023-02-16T00:50:21.287Z,99256.96
2023-02-16T00:52:51.355Z,99257.11
2023-02-16T00:55:24.201Z,99258.53
2023-02-16T00:58:14.495Z,99259.59
2023-02-16T01:00:48.374Z,99257.52
2023-02-16T01:03:22.128Z,99254.75
2023-02-16T01:06:12.065Z,99254.52
2023-02-16T01:09:00.456Z,99251.97
2023-02-16T01:11:30.373Z,99248.86
2023-02-16T01:14:00.068Z,99251.73
2023-02-16T01:16:51.002Z,99252.33
2023-02-16T01:19:23.223Z,99249.00
2023-02-16T01:21:52.358Z,99245.77
2023-02-16T01:24:22.456Z,99238.63
2023-02-16T01:26:52.757Z,99236.05
2023-02-16T01:29:23.485Z,99232.29
2023-02-16T01:31:57.020Z,99228.56
2023-02-16T01:34:26.829Z,99231.02
2023-02-16T01:36:55.955Z,99228.48
2023-02-16T01:39:26.152Z,99228.83
2023-02-16T01:41:59.259Z,99225.63
2023-02-16T01:44:46.955Z,99225.60
2023-02-16T01:47:29.748Z,99224.63
2023-02-16T01:50:03.375Z,99222.52
2023-02-16T01:52:44.247Z,99225.95
2023-02-16T01:55:18.273Z,99224.23
2023-02-16T01:58:12.104Z,99223.50
2023-02-16T02:00:56.895Z,99217.52
2023-02-16T02:03:52.631Z,99213.98
2023-02-16T02:06:35.617Z,99212.67
2023-02-16T02:09:17.760Z,99209.26
2023-02-16T02:11:53.045Z,99213.34
2023-02-16T02:14:33.796Z,99209.16
2023-02-16T02:17:18.433Z,99205.21
2023-02-16T02:20:06.510Z,99203.99
2023-02-16T02:23:29.915Z,99204.31
2023-02-16T02:26:39.665Z,99205.55
2023-02-16T02:29:52.116Z,99202.27
2023-02-16T02:32:27.903Z,99201.54
2023-02-16T02:35:24.656Z,99197.75
2023-02-16T02:38:04.672Z,99194.02
2023-02-16T02:40:45.794Z,99196.90
2023-02-16T02:43:40.042Z,99191.10
2023-02-16T02:46:35.729Z,99188.88
2023-02-16T02:49:05.846Z,99187.67
2023-02-16T02:51:40.965Z,99184.09
2023-02-16T02:54:38.975Z,99185.66
2023-02-16T02:57:38.724Z,99190.23
2023-02-16T03:00:44.914Z,99192.41
2023-02-16T03:03:24.644Z,99190.63
2023-02-16T03:06:09.128Z,99187.91
2023-02-16T03:08:44.214Z,99188.55
2023-02-16T03:11:38.040Z,99187.09
2023-02-16T03:14:32.776Z,99183.44
2023-02-16T03:17:29.629Z,99182.16
2023-02-16T03:20:20.943Z,99182.66
2023-02-16T03:23:10.769Z,99182.89
2023-02-16T03:26:00.181Z,99182.23
2023-02-16T03:28:50.823Z,99180.27
2023-02-16T03:31:29.596Z,99179.80
2023-02-16T03:33:59.830Z,99178.48
2023-02-16T03:36:33.970Z,99176.34
2023-02-16T03:39:06.249Z,99178.76
2023-02-16T03:41:42.195Z,99175.26
2023-02-16T03:44:11.559Z,99170.99
2023-02-16T03:46:41.651Z,99170.76
2023-02-16T03:49:12.893Z,99172.41
2023-02-16T03:51:43.063Z,99167.71
2023-02-16T03:54:13.602Z,99165.77
2023-02-16T03:56:43.213Z,99166.41
2023-02-16T03:59:13.086Z,99168.13
2023-02-16T04:01:43.136Z,99163.40
2023-02-16T04:04:13.241Z,99165.61
2023-02-16T04:06:43.564Z,99161.30
2023-02-16T04:09:13.286Z,99159.64
2023-02-16T04:12:02.413Z,99162.58
2023-02-16T04:14:32.593Z,99159.41
2023-02-16T04:17:04.293Z,99161.20
2023-02-16T04:19:34.124Z,99161.80
2023-02-16T04:22:03.143Z,99165.51
2023-02-16T04:24:32.846Z,99163.25
2023-02-16T04:27:02.186Z,99162.24
2023-02-16T04:29:32.389Z,99159.86
2023-02-16T04:32:05.498Z,99161.61
2023-02-16T04:34:34.753Z,99164.25
2023-02-16T04:37:06.499Z,99166.36
2023-02-16T04:39:36.391Z,99163.36
2023-02-16T04:42:06.677Z,99161.76
2023-02-16T04:44:37.401Z,99159.45
2023-02-16T04:47:07.029Z,99160.20
2023-02-16T04:49:36.933Z,99162.89
2023-02-16T04:52:07.414Z,99157.80
2023-02-16T04:54:37.308Z,99157.19
2023-02-16T04:57:07.026Z,99159.89
2023-02-16T04:59:36.811Z,99159.38
2023-02-16T05:02:06.568Z,99161.73
2023-02-16T05:04:36.456Z,99158.96
2023-02-16T05:07:06.990Z,99158.34
2023-02-16T05:09:37.863Z,99162.91
2023-02-16T05:12:26.319Z,99167.31
2023-02-16T05:14:56.550Z,99164.63
2023-02-16T05:17:27.960Z,99162.13
2023-02-16T05:20:01.964Z,99164.38
2023-02-16T05:22:34.941Z,99165.86
2023-02-16T05:25:04.289Z,99166.98
2023-02-16T05:27:36.173Z,99168.99
2023-02-16T05:30:07.710Z,99168.46
2023-02-16T05:32:36.930Z,99161.95
2023-02-16T05:35:07.011Z,99165.38
2023-02-16T05:37:36.586Z,99166.45
2023-02-16T05:40:07.762Z,99167.60
2023-02-16T05:42:37.048Z,99174.66
2023-02-16T05:45:08.173Z,99172.14
2023-02-16T05:47:38.084Z,99167.39
2023-02-16T05:50:07.985Z,99170.25
2023-02-16T05:52:37.152Z,99170.52
2023-02-16T05:55:07.685Z,99171.45
2023-02-16T05:57:37.599Z,99176.63
2023-02-16T06:00:09.016Z,99179.05
2023-02-16T06:02:39.055Z,99178.27
2023-02-16T06:05:09.645Z,99179.73
2023-02-16T06:07:38.817Z,99177.79
2023-02-16T06:10:10.575Z,99176.75
2023-02-16T06:12:40.089Z,99177.85
2023-02-16T06:15:10.747Z,99174.91
2023-02-16T06:17:40.436Z,99178.16
2023-02-16T06:20:11.336Z,99178.84
2023-02-16T06:22:40.810Z,99180.64
2023-02-16T06:25:10.925Z,99187.48
2023-02-16T06:27:41.486Z,99186.22
2023-02-16T06:30:12.928Z,99185.00
2023-02-16T06:32:42.438Z,99188.60
2023-02-16T06:35:12.525Z,99186.30
2023-02-16T06:37:42.046Z,99185.05
2023-02-16T06:40:16.721Z,99178.73
2023-02-16T06:42:46.668Z,99174.23
2023-02-16T06:45:16.690Z,99172.64
2023-02-16T06:47:46.666Z,99174.02
2023-02-16T06:50:18.318Z,99172.07
2023-02-16T06:52:47.695Z,99166.66
2023-02-16T06:55:17.845Z,99168.96
2023-02-16T06:57:47.798Z,99169.90
2023-02-16T07:00:17.629Z,99166.86
2023-02-16T07:02:47.381Z,99164.98
2023-02-16T07:05:18.001Z,99166.95
2023-02-16T07:07:47.969Z,99168.23
2023-02-16T07:10:18.582Z,99169.52
2023-02-16T07:12:50.030Z,99169.25
2023-02-16T07:15:20.885Z,99166.48
2023-02-16T07:17:50.993Z,99168.09
2023-02-16T07:20:21.422Z,99172.27
2023-02-16T07:22:50.538Z,99176.43
2023-02-16T07:25:20.107Z,99174.30
2023-02-16T07:27:51.529Z,99173.65
2023-02-16T07:30:21.816Z,99179.95
2023-02-16T07:32:51.635Z,99178.80
2023-02-16T07:35:23.363Z,99176.96
2023-02-16T07:37:53.401Z,99175.84
2023-02-16T07:40:23.188Z,99176.30
2023-02-16T07:42:52.474Z,99177.55
2023-02-16T07:45:22.338Z,99177.30
2023-02-16T07:47:52.259Z,99174.41
2023-02-16T07:50:21.753Z,99172.23
2023-02-16T07:52:52.690Z,99169.73
2023-02-16T07:55:22.286Z,99168.69
2023-02-16T07:57:55.909Z,99167.84
2023-02-16T08:00:27.374Z,99171.44
2023-02-16T08:02:57.016Z,99167.80
2023-02-16T08:05:27.356Z,99165.59
2023-02-16T08:07:56.982Z,99165.15
2023-02-16T08:10:27.125Z,99163.48
2023-02-16T08:12:56.423Z,99160.09
2023-02-16T08:15:26.553Z,99159.80
2023-02-16T08:17:55.935Z,99156.15
2023-02-16T08:20:43.181Z,99157.44
2023-02-16T08:23:15.460Z,99159.42
2023-02-16T08:25:46.436Z,99158.13
2023-02-16T08:28:16.026Z,99157.87
2023-02-16T08:30:45.248Z,99158.87
2023-02-16T08:33:15.600Z,99161.03
2023-02-16T08:35:45.615Z,99159.23
2023-02-16T08:38:17.943Z,99157.46
2023-02-16T08:40:51.896Z,99152.50
2023-02-16T08:43:22.931Z,99155.83
2023-02-16T08:45:53.757Z,99155.80
2023-02-16T08:48:23.908Z,99154.89
2023-02-16T08:50:55.403Z,99153.28
2023-02-16T08:53:25.988Z,99152.58
2023-02-16T08:55:59.975Z,99151.48
2023-02-16T08:58:30.430Z,99155.34
2023-02-16T09:01:06.348Z,99156.61
2023-02-16T09:03:39.002Z,99152.64
2023-02-16T09:06:10.675Z,99153.18
2023-02-16T09:08:42.372Z,99151.45
2023-02-16T09:11:14.636Z,99152.58
2023-02-16T09:13:45.332Z,99148.84
2023-02-16T09:16:18.657Z,99152.82
2023-02-16T09:18:49.615Z,99151.50
2023-02-16T09:21:23.392Z,99149.29
2023-02-16T09:23:59.637Z,99153.52
2023-02-16T09:26:33.601Z,99150.34
2023-02-16T09:29:04.164Z,99148.45
2023-02-16T09:31:37.687Z,99148.44
2023-02-16T09:34:16.632Z,99146.65
2023-02-16T09:36:47.874Z,99144.50
2023-02-16T09:39:19.076Z,99144.30
2023-02-16T09:42:05.501Z,99142.76
2023-02-16T09:44:55.208Z,99140.67
2023-02-16T09:47:31.419Z,99138.25
2023-02-16T09:50:13.610Z,99140.63
2023-02-16T09:53:10.262Z,99137.44
2023-02-16T09:56:05.319Z,99139.85
2023-02-16T09:59:13.350Z,99139.42
2023-02-16T10:01:59.064Z,99135.67
2023-02-16T10:04:31.905Z,99135.08
2023-02-16T10:07:34.043Z,99131.77
2023-02-16T10:10:08.941Z,99129.94
2023-02-16T10:12:44.313Z,99127.85
2023-02-16T10:15:20.481Z,99119.30
2023-02-16T10:18:02.890Z,99116.54
2023-02-16T10:20:38.042Z,99114.03
2023-02-16T10:23:27.965Z,99110.17
2023-02-16T10:26:14.082Z,99103.01
2023-02-16T10:28:55.930Z,99100.32
2023-02-16T10:31:31.671Z,99093.23
2023-02-16T10:34:35.564Z,99096.26
2023-02-16T10:37:28.765Z,99089.27
2023-02-16T10:40:01.400Z,99084.74
2023-02-16T10:42:44.668Z,99080.09
2023-02-16T10:45:14.443Z,99075.16
2023-02-16T10:47:47.696Z,99069.84
2023-02-16T10:50:27.014Z,99074.36
2023-02-16T10:53:13.255Z,99068.91
2023-02-16T10:55:42.972Z,99070.09
2023-02-16T10:58:27.125Z,99069.89
2023-02-16T11:01:37.732Z,99069.77
2023-02-16T11:04:36.391Z,99065.70
2023-02-16T11:07:23.679Z,99058.60
2023-02-16T11:09:56.111Z,99056.16
2023-02-16T11:12:54.529Z,99059.69
2023-02-16T11:15:27.366Z,99058.94
2023-02-16T11:18:08.680Z,99063.53
2023-02-16T11:20:48.182Z,99060.31
2023-02-16T11:23:29.027Z,99056.78
2023-02-16T11:26:10.620Z,99057.55
2023-02-16T11:28:47.196Z,99053.29
2023-02-16T11:31:22.002Z,99054.64
2023-02-16T11:34:12.057Z,99055.27
2023-02-16T11:37:16.062Z,99054.48
2023-02-16T11:39:54.514Z,99051.39
2023-02-16T11:42:44.584Z,99052.39
2023-02-16T11:45:33.255Z,99047.91
2023-02-16T11:48:07.745Z,99045.54
2023-02-16T11:50:41.443Z,99041.52
2023-02-16T11:53:12.048Z,99041.55
2023-02-16T11:55:48.422Z,99039.81
2023-02-16T11:58:20.296Z,99035.81
2023-02-16T12:01:11.535Z,99037.42
2023-02-16T12:03:58.408Z,99025.54
2023-02-16T12:07:02.064Z,99022.09
2023-02-16T12:09:31.729Z,99016.67
2023-02-16T12:12:23.375Z,99009.63
2023-02-16T12:15:40.591Z,99005.09
2023-02-16T12:18:34.865Z,98999.60
2023-02-16T12:21:07.559Z,98996.60
2023-02-16T12:23:41.615Z,98996.48
2023-02-16T12:26:41.066Z,98994.73
2023-02-16T12:29:27.821Z,98996.81
2023-02-16T12:32:25.351Z,98993.59
2023-02-16T12:35:04.478Z,98985.92
2023-02-16T12:37:58.175Z,98981.84
2023-02-16T12:40:48.339Z,98974.66
2023-02-16T12:43:20.683Z,98967.33
2023-02-16T12:45:51.593Z,98964.53
2023-02-16T12:48:37.928Z,98961.70
2023-02-16T12:51:15.560Z,98956.32
2023-02-16T12:53:59.632Z,98951.52
2023-02-16T12:56:38.827Z,98952.02
2023-02-16T12:59:33.946Z,98942.10
2023-02-16T13:02:12.344Z,98940.76
2023-02-16T13:04:53.463Z,98937.02
2023-02-16T13:07:47.602Z,98934.38
2023-02-16T13:10:35.395Z,98926.79
2023-02-16T13:13:24.438Z,98924.69
2023-02-16T13:16:01.948Z,98915.77
2023-02-16T13:18:38.920Z,98908.92
2023-02-16T13:21:22.899Z,98910.86
2023-02-16T13:24:26.962Z,98910.29
2023-02-16T13:27:21.999Z,98907.55
2023-02-16T13:30:04.890Z,98905.19
2023-02-16T13:32:52.902Z,98905.40
2023-02-16T13:35:41.262Z,98901.65
2023-02-16T13:38:32.620Z,98897.80
2023-02-16T13:41:19.728Z,98895.52
2023-02-16T13:44:03.867Z,98894.05
2023-02-16T13:46:41.187Z,98895.34
2023-02-16T13:49:38.909Z,98895.01
2023-02-16T13:52:27.878Z,98894.41
2023-02-16T13:55:29.176Z,98889.58
2023-02-16T13:58:16.839Z,98891.42
2023-02-16T14:00:50.047Z,98886.98
2023-02-16T14:03:21.742Z,98885.38
2023-02-16T14:05:56.742Z,98880.73
2023-02-16T14:08:31.731Z,98877.89
2023-02-16T14:11:11.377Z,98877.84
2023-02-16T14:13:47.698Z,98875.39
2023-02-16T14:16:32.948Z,98870.70
2023-02-16T14:19:22.677Z,98870.30
2023-02-16T14:21:55.485Z,98869.41
2023-02-16T14:24:25.194Z,98867.61
2023-02-16T14:26:59.849Z,98865.60
2023-02-16T14:29:48.789Z,98866.38
2023-02-16T14:32:41.283Z,98861.31
2023-02-16T14:35:27.715Z,98857.48
2023-02-16T14:38:00.645Z,98857.20
2023-02-16T14:40:41.737Z,98851.28
2023-02-16T14:43:55.850Z,98848.12
2023-02-16T14:46:28.390Z,98841.10
2023-02-16T14:49:35.642Z,98834.67
2023-02-16T14:52:05.037Z,98836.84
2023-02-16T14:55:24.453Z,98832.83
2023-02-16T14:58:36.736Z,98825.32
2023-02-16T15:01:17.963Z,98822.20
2023-02-16T15:03:55.066Z,98818.96
2023-02-16T15:06:25.133Z,98819.94
2023-02-16T15:09:00.683Z,98817.24
2023-02-16T15:12:02.000Z,98817.16
2023-02-16T15:14:45.849Z,98819.26
2023-02-16T15:17:31.995Z,98817.58
2023-02-16T15:20:25.286Z,98814.48
2023-02-16T15:23:01.737Z,98810.57
2023-02-16T15:25:34.828Z,98809.98
2023-02-16T15:28:11.206Z,98811.98
2023-02-16T15:30:48.911Z,98812.33
2023-02-16T15:33:34.776Z,98809.10
2023-02-16T15:36:13.968Z,98807.30
2023-02-16T15:38:57.725Z,98809.02
2023-02-16T15:41:37.857Z,98808.06
2023-02-16T15:44:36.173Z,98813.18
2023-02-16T15:47:18.430Z,98813.71
2023-02-16T15:49:55.840Z,98812.76
2023-02-16T15:52:36.207Z,98811.52
2023-02-16T15:55:10.386Z,98809.00
2023-02-16T15:57:41.785Z,98810.25
2023-02-16T16:00:23.711Z,98808.89
2023-02-16T16:02:58.860Z,98810.33
2023-02-16T16:05:59.401Z,98807.88
2023-02-16T16:08:30.851Z,98804.68
2023-02-16T16:11:02.001Z,98801.23
2023-02-16T16:13:32.949Z,98798.22
2023-02-16T16:16:05.050Z,98795.27
2023-02-16T16:18:39.570Z,98793.73
2023-02-16T16:21:27.222Z,98793.42
2023-02-16T16:24:51.803Z,98796.19
2023-02-16T16:27:36.746Z,98797.21
2023-02-16T16:30:24.437Z,98797.14
2023-02-16T16:33:02.846Z,98803.11
2023-02-16T16:35:48.583Z,98807.34
2023-02-16T16:38:28.320Z,98809.71
2023-02-16T16:41:03.263Z,98813.34
2023-02-16T16:43:38.278Z,98813.48
2023-02-16T16:46:18.637Z,98810.06
2023-02-16T16:48:51.866Z,98807.23
2023-02-16T16:51:24.562Z,98803.44
2023-02-16T16:54:06.787Z,98806.30
2023-02-16T16:56:42.295Z,98805.01
2023-02-16T16:59:11.531Z,98806.07
2023-02-16T17:01:41.983Z,98809.87
2023-02-16T17:04:11.524Z,98812.91
2023-02-16T17:06:41.782Z,98811.81
2023-02-16T17:09:11.438Z,98810.92
2023-02-16T17:11:41.213Z,98808.94
2023-02-16T17:14:19.726Z,98810.42
2023-02-16T17:16:53.468Z,98810.20
2023-02-16T17:19:24.098Z,98807.79
2023-02-16T17:21:53.836Z,98802.98
2023-02-16T17:24:23.946Z,98802.83
2023-02-16T17:26:53.595Z,98798.53
2023-02-16T17:29:23.575Z,98799.70
2023-02-16T17:31:52.977Z,98795.73
2023-02-16T17:34:29.942Z,98797.27
2023-02-16T17:37:07.932Z,98795.10
2023-02-16T17:39:37.609Z,98788.85
2023-02-16T17:42:12.238Z,98784.23
2023-02-16T17:44:42.045Z,98780.98
2023-02-16T17:47:16.562Z,98779.45
2023-02-16T17:49:46.360Z,98779.74
2023-02-16T17:52:16.032Z,98778.09
2023-02-16T17:54:46.168Z,98778.90
2023-02-16T17:57:15.951Z,98780.45
2023-02-16T17:59:45.107Z,98777.84
2023-02-16T18:02:14.808Z,98782.70
2023-02-16T18:04:44.668Z,98786.41
2023-02-16T18:07:17.593Z,98781.22
2023-02-16T18:09:47.696Z,98782.80
2023-02-16T18:12:18.106Z,98783.71
2023-02-16T18:14:47.782Z,98789.39
2023-02-16T18:17:18.286Z,98786.83
2023-02-16T18:19:48.837Z,98782.41
2023-02-16T18:22:18.400Z,98780.67
2023-02-16T18:24:48.642Z,98777.95
2023-02-16T18:27:21.790Z,98775.07
2023-02-16T18:29:52.325Z,98777.80
2023-02-16T18:32:22.232Z,98781.46
2023-02-16T18:34:52.375Z,98779.41
2023-02-16T18:37:21.544Z,98780.64
2023-02-16T18:39:51.561Z,98786.47
2023-02-16T18:42:21.591Z,98793.77
2023-02-16T18:44:52.481Z,98796.23
2023-02-16T18:47:21.674Z,98795.82
2023-02-16T18:49:53.236Z,98794.91
2023-02-16T18:52:23.709Z,98798.69
2023-02-16T18:54:53.339Z,98794.48
2023-02-16T18:57:23.316Z,98800.08
2023-02-16T18:59:53.709Z,98798.65
2023-02-16T19:02:23.784Z,98801.52
2023-02-16T19:04:53.275Z,98803.82
2023-02-16T19:07:23.244Z,98810.04
2023-02-16T19:09:53.545Z,98809.90
2023-02-16T19:12:23.651Z,98817.09
2023-02-16T19:14:56.400Z,98815.67
2023-02-16T19:17:38.141Z,98815.40
2023-02-16T19:20:18.945Z,98817.13
2023-02-16T19:22:52.608Z,98813.81
2023-02-16T19:25:24.990Z,98813.98
2023-02-16T19:27:55.165Z,98812.82
2023-02-16T19:30:25.799Z,98811.87
2023-02-16T19:32:56.938Z,98812.66
2023-02-16T19:35:28.826Z,98809.55
2023-02-16T19:38:01.596Z,98811.40
2023-02-16T19:40:32.584Z,98808.58
2023-02-16T19:43:02.219Z,98802.79
2023-02-16T19:45:32.625Z,98796.70
2023-02-16T19:48:02.936Z,98798.20
2023-02-16T19:50:32.506Z,98797.45
2023-02-16T19:53:01.536Z,98799.34
2023-02-16T19:55:31.131Z,98799.58
2023-02-16T19:58:00.483Z,98797.81
2023-02-16T20:00:30.812Z,98793.23
2023-02-16T20:03:01.112Z,98794.91
2023-02-16T20:05:31.963Z,98796.19
2023-02-16T20:08:02.778Z,98795.12
2023-02-16T20:10:34.612Z,98792.70
2023-02-16T20:13:06.043Z,98790.48
2023-02-16T20:15:35.665Z,98788.11
2023-02-16T20:18:07.705Z,98786.17
2023-02-16T20:20:37.289Z,98783.48
2023-02-16T20:23:09.076Z,98787.91
2023-02-16T20:25:40.505Z,98783.72
2023-02-16T20:28:10.954Z,98781.43
2023-02-16T20:30:42.987Z,98782.33
2023-02-16T20:33:12.598Z,98775.68
2023-02-16T20:35:43.249Z,98771.90
2023-02-16T20:38:16.734Z,98772.39
2023-02-16T20:40:46.954Z,98774.52
2023-02-16T20:43:19.548Z,98775.47
2023-02-16T20:45:49.737Z,98774.04
2023-02-16T20:48:20.407Z,98772.84
2023-02-16T20:51:09.170Z,98770.13
2023-02-16T20:53:50.634Z,98767.80
2023-02-16T20:56:28.121Z,98767.85
2023-02-16T20:58:59.220Z,98773.09
2023-02-16T21:01:33.035Z,98768.70
2023-02-16T21:04:35.408Z,98768.59
2023-02-16T21:07:05.721Z,98763.88
2023-02-16T21:09:36.083Z,98764.85
2023-02-16T21:12:05.889Z,98768.27
2023-02-16T21:14:35.922Z,98764.21
2023-02-16T21:17:05.852Z,98766.21
2023-02-16T21:19:38.450Z,98765.55
2023-02-16T21:22:09.284Z,98764.70
2023-02-16T21:24:41.235Z,98764.45
2023-02-16T21:27:11.796Z,98764.08
2023-02-16T21:29:41.463Z,98766.25
2023-02-16T21:32:11.747Z,98775.58
2023-02-16T21:34:41.440Z,98768.94
2023-02-16T21:37:10.456Z,98767.27
2023-02-16T21:40:01.551Z,98773.36
2023-02-16T21:42:35.085Z,98774.05
2023-02-16T21:45:14.576Z,98771.50
2023-02-16T21:48:05.215Z,98769.77
2023-02-16T21:50:39.428Z,98765.42
2023-02-16T21:53:09.919Z,98763.57
2023-02-16T21:55:59.350Z,98760.63
2023-02-16T21:58:34.464Z,98764.42
2023-02-16T22:01:04.313Z,98767.53
2023-02-16T22:03:34.089Z,98767.73
2023-02-16T22:06:07.018Z,98766.13
2023-02-16T22:08:40.271Z,98769.11
2023-02-16T22:11:12.300Z,98767.92
2023-02-16T22:13:41.718Z,98767.14
2023-02-16T22:16:14.822Z,98768.58
2023-02-16T22:18:45.390Z,98775.64
2023-02-16T22:21:16.650Z,98774.25
2023-02-16T22:23:46.010Z,98776.30
2023-02-16T22:26:42.945Z,98779.20
2023-02-16T22:29:12.959Z,98780.01
2023-02-16T22:31:50.050Z,98779.23
2023-02-16T22:34:24.216Z,98782.19
2023-02-16T22:36:53.986Z,98782.77
2023-02-16T22:39:23.525Z,98783.27
2023-02-16T22:41:52.503Z,98784.37
2023-02-16T22:44:23.087Z,98784.48
2023-02-16T22:46:55.068Z,98784.30
2023-02-16T22:49:24.585Z,98791.20
2023-02-16T22:51:55.170Z,98794.40
2023-02-16T22:54:25.259Z,98792.23
2023-02-16T22:56:59.346Z,98794.30
2023-02-16T22:59:29.506Z,98794.43
2023-02-16T23:01:59.986Z,98792.44
2023-02-16T23:04:30.801Z,98789.57
2023-02-16T23:07:00.829Z,98787.29
2023-02-16T23:09:30.837Z,98782.66
2023-02-16T23:12:00.397Z,98784.80
2023-02-16T23:14:30.768Z,98780.98
2023-02-16T23:17:00.460Z,98784.58
2023-02-16T23:19:30.466Z,98783.06
2023-02-16T23:22:00.992Z,98781.30
2023-02-16T23:24:30.705Z,98775.84
2023-02-16T23:27:00.138Z,98777.81
2023-02-16T23:29:30.055Z,98773.74
2023-02-16T23:31:59.715Z,98775.93
2023-02-16T23:34:34.115Z,98777.86
2023-02-16T23:37:03.628Z,98775.81
2023-02-16T23:39:33.318Z,98768.91
2023-02-16T23:42:03.364Z,98765.72
2023-02-16T23:44:32.694Z,98771.88
2023-02-16T23:47:03.064Z,98773.42
2023-02-16T23:49:33.507Z,98769.40
2023-02-16T23:52:03.283Z,98768.74
2023-02-16T23:54:37.823Z,98768.83
2023-02-16T23:57:08.411Z,98770.66
2023-02-16T23:59:38.072Z,98769.30
